Youngsville, NM (87064)

8:53 AM MST on December 03, 2016 (GMT -0700)
Las Silvestres | | Change Station

Elev 6010 ft 36.22 °N, 106.37 °W | Updated 6 minutes ago

Scattered Clouds
Scattered Clouds
29.1 °F
Feels Like 29 °F
N
2.0
Wind Variable Wind from WSW
Gusts 7.0 mph

Today
High -- | Low -- °F
--% Chance of Precip.
Yesterday
High -- | Low -- °F
Precip. -- in
Pressure 30.10 in
Visibility 10.0 miles
Clouds Scattered Clouds 3000 ft
Windchill 29 °F
Dew Point 23 °F
Humidity 77%
Rainfall 0.00 in
Snow Depth Not available.
7:01 AM 4:51 PM
Waxing Crescent, 15% visible
METAR KLAM 031535Z AUTO 07003KT 10SM SCT030 M03/M05 A3010 RMK AO2 T10271046
Pressure 30.10 in
Visibility 10.0 miles
Clouds Scattered Clouds 3000 ft
Windchill 29 °F
Dew Point 23 °F
Humidity 77%
Rainfall 0.00 in
Snow Depth Not available.
7:01 AM 4:51 PM
Waxing Crescent, 15% visible
METAR KLAM 031535Z AUTO 07003KT 10SM SCT030 M03/M05 A3010 RMK AO2 T10271046

10-Day Weather Forecast

Almanac

Astronomy

Dec. 03, 2016 Rise Set
Actual Time
Civil Twilight
Nautical Twilight
Astronomical Twilight
Moon
Length of Visible Light
Length of Day
Tomorrow will be .
, % of the Moon is Illuminated

Today's Extremes

State Highs State Lows

Community

WunderPhotos

Upload Photos

1,955,427 photos uploaded!

WunderBlog® & News

Nearby

Air Quality

  Air Quality AQ Index Pollutant
Not available.

Snow Depth

Station Depth Elevation

Earthquake Activity

City Distance Mag. Time & Date
Minimum magnitude displayed is 2.5.

Coastal Water Temperatures

Place Temperature

Stations

Nearby Weather Stations

Station Location Temp. Windchill Dew Point Humidity Wind Precip. Elev Updated Type
                   

Watches & Warnings

There are currently no watches in effect.